Time;durP1;ratioP1;P1;durP2;ratioP2;P2;SDS_P1;SDS_P2;PMS_P1;PMS_P2;Temp;Humidity;BMP_temperature;BMP_pressure;BME280_temperature;BME280_humidity;BME280_pressure;Samples;Min_cycle;Max_cycle;Signal;HPM_P1;HPM_P2
2023/04/29 00:01:04;;;;;;;0.45;0.45;;;18.40;43.70;;;;;;6223383;23;20140;-82
2023/04/29 00:03:31;;;;;;;1.15;0.60;;;18.40;43.70;;;;;;6223740;23;20609;-81
2023/04/29 00:05:58;;;;;;;0.60;0.55;;;18.30;43.70;;;;;;6223843;23;20152;-81
2023/04/29 00:08:24;;;;;;;0.50;0.50;;;18.30;43.70;;;;;;6121828;23;20133;-82
2023/04/29 00:10:50;;;;;;;1.60;0.60;;;18.40;43.70;;;;;;6223919;23;20159;-82
2023/04/29 00:13:16;;;;;;;0.50;0.50;;;18.40;43.70;;;;;;6223776;23;20468;-82
2023/04/29 00:15:42;;;;;;;0.95;0.60;;;18.30;43.70;;;;;;6223469;23;20195;-82
2023/04/29 00:18:09;;;;;;;0.60;0.50;;;18.40;43.80;;;;;;6223994;23;20568;-81
2023/04/29 00:20:36;;;;;;;0.95;0.85;;;18.40;43.70;;;;;;6222818;23;20132;-81
2023/04/29 00:23:03;;;;;;;0.50;0.50;;;18.40;43.80;;;;;;6222563;23;20175;-83
2023/04/29 00:25:29;;;;;;;0.60;0.60;;;18.40;43.80;;;;;;6223805;23;20133;-82
2023/04/29 00:27:58;;;;;;;0.40;0.40;;;18.30;43.80;;;;;;6225228;23;20147;-83
2023/04/29 00:30:24;;;;;;;1.45;0.50;;;18.40;43.80;;;;;;6123050;23;20640;-81
2023/04/29 00:32:50;;;;;;;0.40;0.40;;;18.30;43.70;;;;;;6122905;22;20184;-82
2023/04/29 00:35:16;;;;;;;0.60;0.60;;;18.30;43.80;;;;;;6225122;23;20156;-81
2023/04/29 00:37:42;;;;;;;0.60;0.52;;;18.40;43.80;;;;;;6225548;23;20148;-82
2023/04/29 00:40:08;;;;;;;0.70;0.70;;;18.30;43.90;;;;;;6225364;23;20148;-82
2023/04/29 00:42:34;;;;;;;0.68;0.68;;;18.30;43.80;;;;;;6122965;23;20168;-82
2023/04/29 00:45:01;;;;;;;0.80;0.50;;;18.30;43.80;;;;;;6225610;23;20161;-81
2023/04/29 00:47:27;;;;;;;0.40;0.40;;;18.30;43.80;;;;;;6123029;23;20132;-81
2023/04/29 00:49:53;;;;;;;0.50;0.50;;;18.30;43.80;;;;;;6225155;23;20517;-83
2023/04/29 00:52:19;;;;;;;1.45;0.50;;;18.30;43.80;;;;;;6122888;23;20150;-82
2023/04/29 00:54:44;;;;;;;0.40;0.40;;;18.30;43.80;;;;;;6225326;23;20160;-81
2023/04/29 00:57:11;;;;;;;0.40;0.40;;;18.30;43.80;;;;;;6122990;23;20197;-83
2023/04/29 00:59:37;;;;;;;0.50;0.50;;;18.30;43.90;;;;;;6122872;23;20136;-81
2023/04/29 01:02:03;;;;;;;0.52;0.52;;;18.20;43.90;;;;;;6122992;23;20160;-82
2023/04/29 01:04:30;;;;;;;0.50;0.50;;;18.30;43.90;;;;;;6123641;23;20143;-82
2023/04/29 01:07:05;;;;;;;0.70;0.52;;;18.30;43.90;;;;;;6200218;23;20498;-81
2023/04/29 01:09:58;;;;;;;0.50;0.40;;;18.30;43.90;;;;;;6123603;23;20198;-82
2023/04/29 01:12:46;;;;;;;0.50;0.50;;;18.30;43.90;;;;;;6123432;23;20150;-82
2023/04/29 01:15:39;;;;;;;0.45;0.45;;;18.30;44.00;;;;;;6208710;23;20174;-82
2023/04/29 01:18:11;;;;;;;0.60;0.60;;;18.30;43.90;;;;;;6123519;23;20144;-82
2023/04/29 01:20:38;;;;;;;0.60;0.50;;;18.30;44.00;;;;;;6225431;23;20140;-82
2023/04/29 01:23:08;;;;;;;0.40;0.40;;;18.30;44.00;;;;;;6123085;23;20534;-82
2023/04/29 01:25:34;;;;;;;0.77;0.60;;;18.30;44.00;;;;;;6149834;23;20179;-82
2023/04/29 01:28:06;;;;;;;0.50;0.50;;;18.30;44.00;;;;;;6123029;23;20139;-82
2023/04/29 01:30:59;;;;;;;0.77;0.60;;;18.30;44.00;;;;;;6123084;23;20133;-82
2023/04/29 01:33:40;;;;;;;0.70;0.55;;;18.20;44.00;;;;;;6123995;22;20188;-83
2023/04/29 01:36:22;;;;;;;1.05;0.60;;;18.20;44.10;;;;;;6225080;23;20179;-82
2023/04/29 01:38:59;;;;;;;0.60;0.60;;;18.30;44.10;;;;;;6224662;23;20224;-82
2023/04/29 01:41:35;;;;;;;0.63;0.50;;;18.30;44.10;;;;;;6224496;23;20569;-82
2023/04/29 01:44:01;;;;;;;0.55;0.50;;;18.30;44.10;;;;;;6123247;23;20140;-82
2023/04/29 01:46:27;;;;;;;0.95;0.60;;;18.20;44.10;;;;;;6224870;23;20140;-82
2023/04/29 01:48:54;;;;;;;0.60;0.60;;;18.30;44.20;;;;;;6225347;23;20164;-82
2023/04/29 01:51:23;;;;;;;2.40;0.80;;;18.20;44.10;;;;;;6123286;23;20160;-82
2023/04/29 01:53:49;;;;;;;0.70;0.52;;;18.20;44.10;;;;;;6149569;23;20161;-82
2023/04/29 01:56:15;;;;;;;0.65;0.65;;;18.30;44.20;;;;;;6122964;23;20178;-82
2023/04/29 01:58:41;;;;;;;0.70;0.70;;;18.30;44.20;;;;;;6123074;23;20144;-82
2023/04/29 02:01:09;;;;;;;1.05;0.80;;;18.30;44.20;;;;;;6122704;23;20162;-82
2023/04/29 02:03:35;;;;;;;1.25;0.55;;;18.20;44.90;;;;;;6122978;23;20561;-82
2023/04/29 02:06:01;;;;;;;0.50;0.50;;;18.20;44.20;;;;;;6224614;23;20186;-82
2023/04/29 02:08:27;;;;;;;1.08;0.60;;;18.20;44.20;;;;;;6224627;23;20156;-82
2023/04/29 02:10:54;;;;;;;0.40;0.40;;;18.20;44.20;;;;;;6224725;23;20141;-81
2023/04/29 02:13:20;;;;;;;1.40;0.70;;;18.20;44.20;;;;;;6198930;23;20144;-82
2023/04/29 02:15:46;;;;;;;0.63;0.50;;;18.20;44.20;;;;;;6224394;23;20129;-82
2023/04/29 02:18:12;;;;;;;0.45;0.40;;;18.20;44.20;;;;;;6123212;23;20143;-82
2023/04/29 02:20:42;;;;;;;0.80;0.60;;;18.20;44.20;;;;;;6122743;23;20156;-82
2023/04/29 02:23:09;;;;;;;0.70;0.70;;;18.20;44.20;;;;;;6149273;23;20260;-82
2023/04/29 02:25:35;;;;;;;0.73;0.45;;;18.20;44.30;;;;;;6122752;23;20132;-82
2023/04/29 02:28:01;;;;;;;0.63;0.50;;;18.20;44.30;;;;;;6122663;23;20162;-82
2023/04/29 02:30:26;;;;;;;0.68;0.60;;;18.20;44.30;;;;;;6224936;23;20556;-82
2023/04/29 02:32:53;;;;;;;0.60;0.60;;;18.20;44.30;;;;;;6199022;23;20206;-82
2023/04/29 02:35:19;;;;;;;0.73;0.50;;;18.20;44.30;;;;;;6122666;23;20468;-82
2023/04/29 02:37:45;;;;;;;0.70;0.57;;;18.20;44.40;;;;;;6225016;23;20564;-82
2023/04/29 02:40:11;;;;;;;0.52;0.52;;;18.20;44.40;;;;;;6224578;23;20140;-82
2023/04/29 02:42:37;;;;;;;0.50;0.50;;;18.20;44.40;;;;;;6224359;23;20239;-82
2023/04/29 02:45:04;;;;;;;0.60;0.60;;;18.20;44.40;;;;;;6122945;23;20508;-82
2023/04/29 02:47:29;;;;;;;0.52;0.52;;;18.20;44.40;;;;;;6122547;23;20136;-81
2023/04/29 02:49:55;;;;;;;0.50;0.47;;;18.20;44.40;;;;;;6224247;23;20211;-82
2023/04/29 02:52:22;;;;;;;0.50;0.50;;;18.20;44.40;;;;;;6122567;23;20194;-82
2023/04/29 02:54:47;;;;;;;1.00;0.77;;;18.20;44.40;;;;;;6122654;23;20146;-82
2023/04/29 02:57:13;;;;;;;0.60;0.60;;;18.10;44.50;;;;;;6122573;23;20164;-81
2023/04/29 02:59:39;;;;;;;1.20;0.60;;;18.20;44.40;;;;;;6122590;23;20164;-82
2023/04/29 03:02:06;;;;;;;0.50;0.43;;;18.10;44.40;;;;;;6122516;23;20600;-82
2023/04/29 03:04:32;;;;;;;0.77;0.50;;;18.20;44.50;;;;;;6122594;23;20132;-81
2023/04/29 03:06:58;;;;;;;0.55;0.52;;;18.20;44.50;;;;;;6122519;23;20211;-82
2023/04/29 03:09:24;;;;;;;1.13;0.70;;;18.10;44.50;;;;;;6224212;23;20159;-81
2023/04/29 03:11:50;;;;;;;0.40;0.32;;;18.10;45.20;;;;;;6223927;23;20136;-81
2023/04/29 03:14:16;;;;;;;1.08;0.60;;;18.20;44.60;;;;;;6122254;23;20140;-82
2023/04/29 03:16:41;;;;;;;1.27;0.70;;;18.10;44.60;;;;;;6224033;23;20236;-81
2023/04/29 03:19:08;;;;;;;0.55;0.52;;;18.10;45.20;;;;;;6224197;23;20143;-81
2023/04/29 03:21:33;;;;;;;0.70;0.65;;;18.20;44.70;;;;;;6223884;23;20168;-82
2023/04/29 03:23:59;;;;;;;0.70;0.60;;;18.10;44.60;;;;;;6224059;23;20216;-81
2023/04/29 03:26:25;;;;;;;0.50;0.50;;;18.10;44.60;;;;;;6122191;23;20250;-81
2023/04/29 03:28:51;;;;;;;1.25;0.70;;;18.20;44.60;;;;;;6224064;23;20246;-81
2023/04/29 03:31:19;;;;;;;0.60;0.60;;;18.10;44.60;;;;;;6198446;23;20160;-81
2023/04/29 03:33:45;;;;;;;0.57;0.57;;;18.10;44.60;;;;;;6122401;23;20205;-81
2023/04/29 03:36:12;;;;;;;0.47;0.47;;;18.10;44.60;;;;;;6122589;23;20219;-81
2023/04/29 03:38:38;;;;;;;0.40;0.40;;;18.20;44.60;;;;;;6122138;23;20137;-81
2023/04/29 03:41:03;;;;;;;0.75;0.40;;;18.10;44.60;;;;;;6121859;23;20147;-82
2023/04/29 03:43:30;;;;;;;0.88;0.50;;;18.20;44.70;;;;;;6122489;23;20136;-81
2023/04/29 03:45:55;;;;;;;0.40;0.40;;;18.10;44.60;;;;;;6122101;23;20137;-82
2023/04/29 03:48:21;;;;;;;0.52;0.52;;;18.10;44.70;;;;;;6122057;23;20594;-82
2023/04/29 03:50:47;;;;;;;0.40;0.40;;;18.10;44.60;;;;;;6223508;23;20698;-82
2023/04/29 03:53:13;;;;;;;0.47;0.47;;;18.10;44.60;;;;;;6121976;23;20219;-82
2023/04/29 03:55:39;;;;;;;0.60;0.60;;;18.10;44.60;;;;;;6223556;23;20140;-81
2023/04/29 03:58:05;;;;;;;0.70;0.52;;;18.10;44.70;;;;;;6122195;23;20236;-82
2023/04/29 04:00:31;;;;;;;0.40;0.40;;;18.10;44.70;;;;;;6122116;23;20580;-84
2023/04/29 04:02:58;;;;;;;0.75;0.75;;;18.10;44.70;;;;;;6225518;23;20554;-82
2023/04/29 04:05:24;;;;;;;0.82;0.60;;;18.10;44.70;;;;;;6225278;23;20132;-82
2023/04/29 04:07:51;;;;;;;1.00;0.50;;;18.10;44.80;;;;;;6225606;23;20449;-81
2023/04/29 04:10:17;;;;;;;0.88;0.60;;;18.10;44.80;;;;;;6225576;23;20175;-81
2023/04/29 04:12:44;;;;;;;0.65;0.60;;;18.10;44.90;;;;;;6123120;23;20634;-82
2023/04/29 04:15:10;;;;;;;0.60;0.60;;;18.10;44.90;;;;;;6225193;23;20178;-81
2023/04/29 04:17:36;;;;;;;0.55;0.50;;;18.10;44.80;;;;;;6123030;23;20140;-81
2023/04/29 04:20:02;;;;;;;1.15;0.80;;;18.10;44.90;;;;;;6123058;23;20175;-83
2023/04/29 04:22:28;;;;;;;0.57;0.57;;;18.10;45.00;;;;;;6123026;23;20250;-82
2023/04/29 04:24:54;;;;;;;0.40;0.40;;;18.10;44.80;;;;;;6200214;23;20144;-82
2023/04/29 04:27:20;;;;;;;1.13;0.60;;;18.10;44.80;;;;;;6123264;23;20262;-82
2023/04/29 04:29:46;;;;;;;0.50;0.50;;;18.10;44.80;;;;;;6122996;23;20164;-82
2023/04/29 04:32:12;;;;;;;2.42;0.73;;;18.10;44.80;;;;;;6122952;22;20188;-82
2023/04/29 04:34:38;;;;;;;0.40;0.40;;;18.10;44.80;;;;;;6123347;23;20156;-82
2023/04/29 04:37:05;;;;;;;0.50;0.50;;;18.10;44.70;;;;;;6225701;23;20148;-82
2023/04/29 04:39:31;;;;;;;0.50;0.50;;;18.10;44.90;;;;;;6224721;23;20140;-82
2023/04/29 04:41:57;;;;;;;0.50;0.50;;;18.10;44.80;;;;;;6122944;23;20217;-82
2023/04/29 04:44:23;;;;;;;1.05;0.70;;;18.10;44.90;;;;;;6122964;23;20567;-82
2023/04/29 04:46:50;;;;;;;0.50;0.45;;;18.10;44.80;;;;;;6225286;23;20438;-82
2023/04/29 04:49:16;;;;;;;0.70;0.70;;;18.10;44.90;;;;;;6123173;23;20163;-82
2023/04/29 04:51:44;;;;;;;0.75;0.50;;;18.10;44.90;;;;;;6199766;23;20580;-82
2023/04/29 04:54:10;;;;;;;0.77;0.60;;;18.10;45.00;;;;;;6225025;23;20156;-81
2023/04/29 04:56:36;;;;;;;0.60;0.60;;;18.10;45.00;;;;;;6123252;23;20164;-82
2023/04/29 04:59:03;;;;;;;0.60;0.50;;;18.10;45.00;;;;;;6122888;23;20244;-83
2023/04/29 05:01:29;;;;;;;0.60;0.50;;;18.00;44.90;;;;;;6199252;23;20692;-82
2023/04/29 05:03:54;;;;;;;0.70;0.70;;;18.10;45.00;;;;;;6122903;23;20155;-82
2023/04/29 05:06:20;;;;;;;0.70;0.60;;;18.10;45.00;;;;;;6224646;23;20567;-82
2023/04/29 05:08:46;;;;;;;0.50;0.50;;;18.10;45.00;;;;;;6224791;23;20602;-83
2023/04/29 05:11:16;;;;;;;0.57;0.57;;;18.10;45.00;;;;;;6174811;23;20156;-82
2023/04/29 05:13:42;;;;;;;0.55;0.50;;;18.10;45.00;;;;;;6224869;23;20153;-82
2023/04/29 05:16:07;;;;;;;0.50;0.50;;;18.10;45.10;;;;;;6122761;23;20159;-82
2023/04/29 05:18:33;;;;;;;0.57;0.50;;;18.00;45.00;;;;;;6122762;23;20587;-82
2023/04/29 05:20:59;;;;;;;0.70;0.68;;;18.10;45.00;;;;;;6122823;23;20186;-83
2023/04/29 05:23:25;;;;;;;1.15;0.70;;;18.10;45.00;;;;;;6122722;23;20195;-83
2023/04/29 05:25:51;;;;;;;0.65;0.65;;;18.10;45.00;;;;;;6123047;22;20194;-83
2023/04/29 05:28:16;;;;;;;0.93;0.70;;;18.10;45.00;;;;;;6122771;23;20194;-83
2023/04/29 05:30:42;;;;;;;0.65;0.47;;;18.10;45.00;;;;;;6122673;23;20211;-83
2023/04/29 05:33:08;;;;;;;0.68;0.68;;;18.10;45.00;;;;;;6123029;22;20611;-83
2023/04/29 05:35:34;;;;;;;0.50;0.50;;;18.10;45.00;;;;;;6122757;23;20147;-83
2023/04/29 05:37:59;;;;;;;1.23;0.60;;;18.10;45.00;;;;;;6123723;23;20568;-82
2023/04/29 05:40:26;;;;;;;0.70;0.50;;;18.10;44.90;;;;;;6225086;23;20602;-83
2023/04/29 05:42:51;;;;;;;0.63;0.52;;;18.10;44.90;;;;;;6224024;23;20171;-82
2023/04/29 05:45:17;;;;;;;0.50;0.47;;;18.10;45.00;;;;;;6122934;23;20143;-82
2023/04/29 05:47:43;;;;;;;0.50;0.50;;;18.10;45.10;;;;;;6199444;23;20132;-83
2023/04/29 05:50:10;;;;;;;0.90;0.50;;;18.10;45.00;;;;;;6122779;23;20137;-82
2023/04/29 05:52:36;;;;;;;0.47;0.47;;;18.10;45.00;;;;;;6123141;23;20137;-82
2023/04/29 05:55:02;;;;;;;0.50;0.50;;;18.10;45.00;;;;;;6122650;23;20148;-83
2023/04/29 05:57:28;;;;;;;0.68;0.63;;;18.10;45.00;;;;;;6199822;23;20167;-84
2023/04/29 05:59:54;;;;;;;1.02;0.50;;;18.00;45.00;;;;;;6122585;23;20137;-82
2023/04/29 06:02:21;;;;;;;0.95;0.60;;;18.10;45.00;;;;;;6122520;23;20499;-82
2023/04/29 06:04:47;;;;;;;0.43;0.43;;;18.00;45.00;;;;;;6122718;23;20132;-82
2023/04/29 06:07:13;;;;;;;0.50;0.50;;;18.10;45.10;;;;;;6122563;23;20133;-82
2023/04/29 06:09:39;;;;;;;0.77;0.43;;;18.10;45.20;;;;;;6225015;23;20140;-82
2023/04/29 06:12:05;;;;;;;0.43;0.40;;;18.10;45.20;;;;;;6122623;23;20580;-82
2023/04/29 06:14:31;;;;;;;0.40;0.40;;;18.10;45.20;;;;;;6224648;23;20235;-83
2023/04/29 06:16:57;;;;;;;1.40;0.60;;;18.00;45.10;;;;;;6122789;23;20140;-82
2023/04/29 06:19:23;;;;;;;0.45;0.45;;;18.00;45.10;;;;;;6122534;23;20137;-82
2023/04/29 06:21:49;;;;;;;0.50;0.50;;;18.10;45.20;;;;;;6122511;23;20175;-83
2023/04/29 06:24:15;;;;;;;0.40;0.40;;;18.10;45.10;;;;;;6122182;23;20136;-81
2023/04/29 06:26:41;;;;;;;0.50;0.50;;;18.10;45.20;;;;;;6224410;23;20160;-82
2023/04/29 06:29:07;;;;;;;0.63;0.55;;;18.00;45.10;;;;;;6122603;23;20137;-83
2023/04/29 06:31:32;;;;;;;0.63;0.60;;;18.10;45.20;;;;;;6122511;22;20568;-83
2023/04/29 06:33:58;;;;;;;0.60;0.50;;;18.00;45.80;;;;;;6223048;23;20144;-82
2023/04/29 06:36:23;;;;;;;0.73;0.57;;;18.00;45.20;;;;;;6120581;23;20140;-82
2023/04/29 06:38:50;;;;;;;1.02;0.50;;;18.00;45.10;;;;;;6120455;23;20630;-82
2023/04/29 06:41:15;;;;;;;0.60;0.60;;;18.10;45.30;;;;;;6120317;23;20586;-83
2023/04/29 06:43:42;;;;;;;2.00;0.65;;;18.00;45.20;;;;;;6120533;23;20216;-82
2023/04/29 06:46:08;;;;;;;0.98;0.60;;;18.00;45.30;;;;;;6222578;23;20572;-82
2023/04/29 06:48:35;;;;;;;0.50;0.50;;;18.00;45.30;;;;;;6197367;23;20223;-85
2023/04/29 06:51:01;;;;;;;0.50;0.50;;;18.10;45.30;;;;;;6223298;23;20189;-82
2023/04/29 06:53:27;;;;;;;0.50;0.50;;;18.00;45.20;;;;;;6222876;23;20210;-83
2023/04/29 06:55:53;;;;;;;0.63;0.63;;;18.10;45.20;;;;;;6121462;23;20137;-83
2023/04/29 06:58:19;;;;;;;0.57;0.50;;;18.10;45.20;;;;;;6222813;23;20164;-82
2023/04/29 07:00:47;;;;;;;0.52;0.52;;;18.10;45.20;;;;;;6222868;23;20143;-83
2023/04/29 07:03:13;;;;;;;0.65;0.57;;;18.10;45.20;;;;;;6222568;23;20645;-83
2023/04/29 07:05:40;;;;;;;0.73;0.50;;;18.10;45.20;;;;;;6120097;23;20445;-83
2023/04/29 07:08:06;;;;;;;0.70;0.68;;;18.00;45.80;;;;;;6120620;23;20164;-83
2023/04/29 07:10:32;;;;;;;0.57;0.52;;;18.00;45.10;;;;;;6120229;23;20148;-82
2023/04/29 07:12:59;;;;;;;0.47;0.47;;;18.10;45.10;;;;;;6120515;23;20144;-83
2023/04/29 07:15:26;;;;;;;0.57;0.50;;;18.10;45.00;;;;;;6198304;23;20482;-83
2023/04/29 07:17:52;;;;;;;0.60;0.60;;;18.10;45.10;;;;;;6222559;23;20522;-83
2023/04/29 07:20:18;;;;;;;0.55;0.50;;;18.10;45.10;;;;;;6222914;23;20141;-83
2023/04/29 07:22:44;;;;;;;0.57;0.57;;;18.10;45.00;;;;;;6123246;23;20164;-83
2023/04/29 07:25:10;;;;;;;0.57;0.50;;;18.10;45.00;;;;;;6124295;23;20143;-83
2023/04/29 07:27:36;;;;;;;0.70;0.70;;;18.10;45.00;;;;;;6123980;23;20583;-82
2023/04/29 07:30:03;;;;;;;0.70;0.47;;;18.20;45.10;;;;;;6123602;23;20521;-82
2023/04/29 07:32:30;;;;;;;0.52;0.52;;;18.10;45.10;;;;;;6173889;23;1222675;-83
2023/04/29 07:34:56;;;;;;;0.88;0.60;;;18.10;45.10;;;;;;6125497;23;20136;-83
2023/04/29 07:37:22;;;;;;;0.60;0.60;;;18.10;45.10;;;;;;6125294;23;20149;-82
2023/04/29 07:39:48;;;;;;;0.85;0.68;;;18.10;45.10;;;;;;6125588;23;20148;-83
2023/04/29 07:42:14;;;;;;;1.10;0.65;;;18.00;45.00;;;;;;6227395;23;20595;-82
2023/04/29 07:44:40;;;;;;;0.63;0.63;;;18.10;45.00;;;;;;6226691;23;20174;-83
2023/04/29 07:47:06;;;;;;;0.80;0.60;;;18.20;44.80;;;;;;6227334;23;20139;-82
2023/04/29 07:49:32;;;;;;;0.50;0.50;;;18.20;44.80;;;;;;6125347;23;20140;-83
2023/04/29 07:51:59;;;;;;;0.50;0.50;;;18.30;44.60;;;;;;6125391;23;20140;-82
2023/04/29 07:54:26;;;;;;;0.80;0.65;;;18.30;44.50;;;;;;6125692;23;20160;-83
2023/04/29 07:56:52;;;;;;;0.70;0.50;;;18.30;44.30;;;;;;6202184;23;20159;-81
2023/04/29 07:59:18;;;;;;;0.57;0.57;;;18.50;44.10;;;;;;6125362;23;20137;-83
2023/04/29 08:01:43;;;;;;;0.40;0.40;;;18.50;43.90;;;;;;6124912;23;20465;-83
2023/04/29 08:04:09;;;;;;;0.50;0.50;;;18.50;43.80;;;;;;6226052;23;20132;-83
2023/04/29 08:06:35;;;;;;;0.70;0.57;;;18.50;44.10;;;;;;6125098;23;20178;-82
2023/04/29 08:09:00;;;;;;;0.63;0.60;;;18.50;43.90;;;;;;6124458;23;20133;-84
2023/04/29 08:11:26;;;;;;;0.40;0.40;;;18.50;44.00;;;;;;6125562;23;20137;-83
2023/04/29 08:13:53;;;;;;;0.60;0.60;;;18.40;44.00;;;;;;6226345;23;20168;-83
2023/04/29 08:16:20;;;;;;;0.52;0.52;;;18.40;44.40;;;;;;6225025;23;20160;-83
2023/04/29 08:18:46;;;;;;;0.52;0.52;;;18.50;43.80;;;;;;6224702;23;20133;-82
2023/04/29 08:21:12;;;;;;;0.55;0.52;;;18.50;43.60;;;;;;6123155;23;20507;-83
2023/04/29 08:23:38;;;;;;;1.02;0.50;;;18.60;43.70;;;;;;6123669;23;20630;-83
2023/04/29 08:26:05;;;;;;;0.40;0.40;;;18.60;43.60;;;;;;6124087;23;20132;-84
2023/04/29 08:28:34;;;;;;;1.92;0.43;;;18.60;43.70;;;;;;6226004;23;20141;-83
2023/04/29 08:31:00;;;;;;;1.23;0.47;;;18.60;43.70;;;;;;6174748;23;20178;-82
2023/04/29 08:33:27;;;;;;;1.75;0.50;;;18.50;43.40;;;;;;6225104;23;20642;-83
2023/04/29 08:36:02;;;;;;;0.50;0.50;;;18.60;43.40;;;;;;6122072;23;20157;-83
2023/04/29 08:38:28;;;;;;;1.15;0.60;;;18.60;43.50;;;;;;6222632;23;20189;-83
2023/04/29 08:40:55;;;;;;;1.08;0.63;;;18.50;43.70;;;;;;6121737;23;20141;-83
2023/04/29 08:43:21;;;;;;;0.47;0.43;;;18.50;43.80;;;;;;6121977;23;20244;-82
2023/04/29 08:45:48;;;;;;;0.52;0.50;;;18.50;43.60;;;;;;6223749;23;20528;-83
2023/04/29 08:48:14;;;;;;;0.93;0.55;;;18.60;43.50;;;;;;6122970;23;20136;-83
2023/04/29 08:50:41;;;;;;;0.73;0.50;;;18.60;43.60;;;;;;6200311;23;20180;-83
2023/04/29 08:53:07;;;;;;;0.30;0.30;;;18.50;43.60;;;;;;6226882;23;20186;-83
2023/04/29 08:55:35;;;;;;;0.75;0.50;;;18.50;43.60;;;;;;6124139;23;20171;-82
2023/04/29 08:58:01;;;;;;;0.47;0.40;;;18.50;43.60;;;;;;6225827;23;20172;-82
2023/04/29 09:00:26;;;;;;;0.50;0.50;;;18.50;43.70;;;;;;6126649;23;20476;-83
2023/04/29 09:02:53;;;;;;;1.50;0.57;;;18.50;43.70;;;;;;6124653;23;20199;-83
2023/04/29 09:05:19;;;;;;;1.38;0.40;;;18.50;43.80;;;;;;6178053;23;20144;-82
2023/04/29 09:07:45;;;;;;;0.40;0.40;;;18.60;43.60;;;;;;6205977;23;20149;-82
2023/04/29 09:10:11;;;;;;;0.98;0.50;;;18.50;43.90;;;;;;6126692;23;20132;-80
2023/04/29 09:12:41;;;;;;;0.57;0.50;;;18.60;44.10;;;;;;6204433;23;20148;-83
2023/04/29 09:15:08;;;;;;;1.80;0.50;;;18.60;43.90;;;;;;6153082;23;20157;-82
2023/04/29 09:17:44;;;;;;;3.65;0.50;;;18.60;43.60;;;;;;6227575;23;20572;-83
2023/04/29 09:20:26;;;;;;;1.38;0.60;;;18.50;43.80;;;;;;6201414;23;20176;-83
2023/04/29 09:22:54;;;;;;;0.55;0.50;;;18.60;43.50;;;;;;6226903;23;20180;-82
2023/04/29 09:25:20;;;;;;;2.10;0.50;;;18.60;43.40;;;;;;6226656;23;20626;-83
2023/04/29 09:27:49;;;;;;;0.82;0.40;;;18.60;43.60;;;;;;6125049;23;20140;-82
2023/04/29 09:30:15;;;;;;;1.75;0.50;;;18.70;44.10;;;;;;6203252;23;20178;-82
2023/04/29 09:32:44;;;;;;;3.70;0.70;;;18.60;43.00;;;;;;6152882;23;20253;-83
2023/04/29 09:35:27;;;;;;;4.88;1.27;;;18.60;43.50;;;;;;6123999;23;20147;-83
2023/04/29 09:37:53;;;;;;;0.82;0.45;;;18.70;43.80;;;;;;6099593;23;20155;-83
2023/04/29 09:40:34;;;;;;;2.38;0.50;;;18.60;43.70;;;;;;6125236;23;20220;-82
2023/04/29 09:43:00;;;;;;;1.58;0.45;;;18.60;43.60;;;;;;6123444;23;20171;-83
2023/04/29 09:45:35;;;;;;;1.85;0.55;;;18.70;43.50;;;;;;6121432;23;20159;-81
2023/04/29 09:48:02;;;;;;;1.60;0.47;;;18.70;43.10;;;;;;6120642;23;20128;-80
2023/04/29 09:50:28;;;;;;;3.63;0.60;;;18.70;43.30;;;;;;6123041;23;20453;-81
2023/04/29 09:52:54;;;;;;;3.40;0.60;;;18.70;43.60;;;;;;6120711;23;20143;-81
2023/04/29 09:55:20;;;;;;;3.13;1.02;;;18.70;43.40;;;;;;6095924;23;20240;-81
2023/04/29 09:57:46;;;;;;;3.95;0.57;;;18.70;43.70;;;;;;6122357;23;20137;-81
2023/04/29 10:00:13;;;;;;;1.80;0.60;;;18.70;43.40;;;;;;6120142;23;20140;-82
2023/04/29 10:02:41;;;;;;;2.65;0.77;;;18.70;43.70;;;;;;6120700;23;20516;-81
2023/04/29 10:05:07;;;;;;;5.63;0.65;;;18.60;43.50;;;;;;6121795;23;20163;-81
2023/04/29 10:07:33;;;;;;;4.65;0.60;;;18.60;44.30;;;;;;6120835;23;20500;-81
2023/04/29 10:09:59;;;;;;;5.10;0.80;;;18.60;43.80;;;;;;6120474;23;20575;-81
2023/04/29 10:12:25;;;;;;;8.57;0.88;;;18.70;43.80;;;;;;6071924;23;20209;-81
2023/04/29 10:15:26;;;;;;;7.45;1.00;;;18.60;43.90;;;;;;6122338;23;20187;-81
2023/04/29 10:17:57;;;;;;;3.83;0.75;;;18.70;43.80;;;;;;6122168;23;20548;-81
2023/04/29 10:20:24;;;;;;;4.40;0.90;;;18.70;43.50;;;;;;6120312;23;20465;-80
2023/04/29 10:22:55;;;;;;;4.07;1.00;;;18.70;44.00;;;;;;6120956;23;20172;-81
2023/04/29 10:25:25;;;;;;;3.08;1.00;;;18.70;44.00;;;;;;6121983;23;20182;-80
2023/04/29 10:27:52;;;;;;;2.38;0.88;;;18.70;43.80;;;;;;6096284;23;20179;-81
2023/04/29 10:30:19;;;;;;;6.38;0.80;;;18.70;44.00;;;;;;6121995;23;20499;-81
2023/04/29 10:32:45;;;;;;;4.47;0.90;;;18.70;44.10;;;;;;6119846;23;20214;-80
2023/04/29 10:35:13;;;;;;;4.85;0.77;;;18.70;44.20;;;;;;6122031;23;20163;-80
2023/04/29 10:37:41;;;;;;;4.65;0.77;;;18.70;44.10;;;;;;6121896;23;20223;-82
2023/04/29 10:40:12;;;;;;;5.80;0.93;;;18.80;43.60;;;;;;6121993;23;20443;-80
2023/04/29 10:42:44;;;;;;;1.70;0.70;;;18.70;44.10;;;;;;6120584;23;20164;-81
2023/04/29 10:45:27;;;;;;;11.43;1.25;;;18.70;43.90;;;;;;6122957;23;20137;-81
2023/04/29 10:48:11;;;;;;;4.82;0.98;;;18.70;43.80;;;;;;6120671;23;20132;-81
2023/04/29 10:51:01;;;;;;;3.42;0.90;;;18.70;45.10;;;;;;6073019;23;20592;-81
2023/04/29 10:53:27;;;;;;;2.83;0.80;;;18.70;43.80;;;;;;6121254;23;20137;-81
2023/04/29 10:55:55;;;;;;;5.07;1.00;;;18.70;44.10;;;;;;6121394;23;20227;-81
2023/04/29 10:58:44;;;;;;;4.45;0.90;;;18.80;44.10;;;;;;6097695;23;20147;-81
2023/04/29 11:01:11;;;;;;;5.60;0.80;;;18.70;43.80;;;;;;6122900;23;20144;-81
2023/04/29 11:04:04;;;;;;;0.50;0.50;;;18.70;43.80;;;;;;6096603;23;20472;-82
2023/04/29 11:06:44;;;;;;;3.38;0.70;;;18.70;43.40;;;;;;6101105;23;20186;-81
2023/04/29 11:09:20;;;;;;;2.00;1.20;;;18.70;43.70;;;;;;6097038;23;20136;-81
2023/04/29 11:11:59;;;;;;;1.40;0.60;;;18.70;43.10;;;;;;6171854;23;20152;-82
2023/04/29 11:14:35;;;;;;;5.45;1.00;;;18.70;42.70;;;;;;6123484;23;20144;-83
2023/04/29 11:17:06;;;;;;;4.13;0.80;;;18.70;43.20;;;;;;6103578;23;20132;-82
2023/04/29 11:19:34;;;;;;;6.38;1.13;;;18.70;42.80;;;;;;6127074;23;20145;-83
2023/04/29 11:22:10;;;;;;;3.25;0.90;;;18.70;43.20;;;;;;6127487;23;20250;-84
2023/04/29 11:24:36;;;;;;;3.85;0.90;;;18.70;43.20;;;;;;6128580;23;20147;-81
2023/04/29 11:27:03;;;;;;;4.57;0.88;;;18.70;42.70;;;;;;6126799;23;20140;-84
2023/04/29 11:29:31;;;;;;;3.25;0.70;;;18.60;42.30;;;;;;6126418;23;20134;-82
2023/04/29 11:32:00;;;;;;;2.80;0.90;;;18.70;42.30;;;;;;6109059;23;20277;-83
2023/04/29 11:34:26;;;;;;;1.77;1.05;;;18.70;41.90;;;;;;6177695;23;20152;-83
2023/04/29 11:36:53;;;;;;;2.30;0.90;;;18.70;42.00;;;;;;6231336;23;20141;-82
2023/04/29 11:39:25;;;;;;;2.13;0.95;;;18.70;42.10;;;;;;6129664;23;20247;-84
2023/04/29 11:42:05;;;;;;;2.08;0.82;;;18.70;41.80;;;;;;6130730;23;20180;-82
2023/04/29 11:44:34;;;;;;;2.90;0.90;;;18.70;42.00;;;;;;6201710;23;20190;-83
2023/04/29 11:47:04;;;;;;;2.78;0.75;;;18.70;41.90;;;;;;6176135;23;20219;-84
2023/04/29 11:49:33;;;;;;;1.23;0.80;;;18.70;41.70;;;;;;6201702;23;20231;-83
2023/04/29 11:51:59;;;;;;;1.98;0.77;;;18.70;41.30;;;;;;6228213;23;20254;-82
2023/04/29 11:54:27;;;;;;;3.67;1.10;;;18.70;41.10;;;;;;6175946;23;20152;-83
2023/04/29 11:56:54;;;;;;;1.00;0.75;;;18.60;41.90;;;;;;6200643;23;20492;-82
2023/04/29 11:59:20;;;;;;;1.80;0.80;;;18.70;41.20;;;;;;6201064;23;20148;-82
2023/04/29 12:01:46;;;;;;;1.80;0.70;;;18.70;41.30;;;;;;6177664;23;20191;-82
2023/04/29 12:04:11;;;;;;;3.22;0.63;;;18.70;41.50;;;;;;6178989;23;20145;-82
2023/04/29 12:06:37;;;;;;;2.33;0.80;;;18.70;41.20;;;;;;6200590;23;20553;-82
2023/04/29 12:09:03;;;;;;;2.95;0.90;;;18.70;41.20;;;;;;6201972;23;20159;-82
2023/04/29 12:11:30;;;;;;;3.22;0.70;;;18.70;40.80;;;;;;6202298;23;20152;-82
2023/04/29 12:13:56;;;;;;;1.55;0.88;;;18.70;41.10;;;;;;6206051;23;20147;-82
2023/04/29 12:16:22;;;;;;;2.92;0.70;;;18.70;40.90;;;;;;6206943;23;20156;-81
2023/04/29 12:18:50;;;;;;;4.88;0.80;;;18.70;40.90;;;;;;6180257;23;20157;-82
2023/04/29 12:21:19;;;;;;;1.95;0.82;;;18.70;40.30;;;;;;6205789;23;20228;-83
2023/04/29 12:23:47;;;;;;;1.20;0.77;;;18.70;40.70;;;;;;6186642;23;20479;-83
2023/04/29 12:26:16;;;;;;;1.83;0.77;;;18.70;40.40;;;;;;6236920;23;20154;-82
2023/04/29 12:28:43;;;;;;;3.63;0.98;;;18.70;40.50;;;;;;6211163;23;20266;-83
2023/04/29 12:31:10;;;;;;;1.08;0.90;;;18.80;40.10;;;;;;6185694;23;20565;-83
2023/04/29 12:33:36;;;;;;;1.00;0.65;;;18.70;40.60;;;;;;6210928;23;20188;-83
2023/04/29 12:36:02;;;;;;;3.60;0.90;;;18.80;40.90;;;;;;6208338;23;20141;-81
2023/04/29 12:38:30;;;;;;;1.30;0.85;;;18.80;40.80;;;;;;6182155;23;20167;-81
2023/04/29 12:40:58;;;;;;;1.50;0.95;;;18.80;40.90;;;;;;6208654;23;20246;-80
2023/04/29 12:43:27;;;;;;;3.22;0.80;;;18.70;41.00;;;;;;6210364;23;20171;-81
2023/04/29 12:46:06;;;;;;;0.80;0.60;;;18.80;41.00;;;;;;6233811;23;20183;-81
2023/04/29 12:48:33;;;;;;;3.33;0.90;;;18.80;40.60;;;;;;6208534;23;20152;-82